createdAt,value
2022-11-05T00:03:41.815Z,11.13
2022-11-05T00:09:03.811Z,11.90
2022-11-05T00:14:24.606Z,10.10
2022-11-05T00:19:27.976Z,8.50
2022-11-05T00:24:49.563Z,11.00
2022-11-05T00:29:52.463Z,9.63
2022-11-05T00:34:55.476Z,9.43
2022-11-05T00:39:59.839Z,9.80
2022-11-05T00:45:02.961Z,10.70
2022-11-05T00:50:06.729Z,11.70
2022-11-05T00:55:11.169Z,8.90
2022-11-05T01:00:15.680Z,10.30
2022-11-05T01:05:19.051Z,12.60
2022-11-05T01:10:27.126Z,9.83
2022-11-05T01:15:30.133Z,11.33
2022-11-05T01:20:33.412Z,8.63
2022-11-05T01:25:37.824Z,17.10
2022-11-05T01:30:41.052Z,9.47
2022-11-05T01:35:45.351Z,11.97
2022-11-05T01:40:49.770Z,11.17
2022-11-05T01:45:56.886Z,13.63
2022-11-05T01:51:04.297Z,11.33
2022-11-05T01:56:12.869Z,12.23
2022-11-05T02:01:16.707Z,12.07
2022-11-05T02:06:21.090Z,13.27
2022-11-05T02:11:25.686Z,12.20
2022-11-05T02:16:38.779Z,13.43
2022-11-05T02:22:05.022Z,10.63
2022-11-05T02:27:40.654Z,11.23
2022-11-05T02:33:02.089Z,11.30
2022-11-05T02:38:10.077Z,12.57
2022-11-05T02:43:20.388Z,13.93
2022-11-05T02:48:30.806Z,10.93
2022-11-05T02:53:42.009Z,12.17
2022-11-05T02:58:45.087Z,14.27
2022-11-05T03:03:54.858Z,9.80
2022-11-05T03:09:16.735Z,12.40
2022-11-05T03:14:26.390Z,16.20
2022-11-05T03:19:37.689Z,11.27
2022-11-05T03:24:44.302Z,10.37
2022-11-05T03:29:51.104Z,12.60
2022-11-05T03:35:02.420Z,17.53
2022-11-05T03:40:09.636Z,11.90
2022-11-05T03:45:17.843Z,14.00
2022-11-05T03:50:28.757Z,13.43
2022-11-05T03:55:37.636Z,11.47
2022-11-05T04:00:40.710Z,12.17
2022-11-05T04:06:05.389Z,12.37
2022-11-05T04:11:26.834Z,9.90
2022-11-05T04:16:47.526Z,8.83
2022-11-05T04:22:20.864Z,10.50
2022-11-05T04:27:24.076Z,10.47
2022-11-05T04:32:26.964Z,14.37
2022-11-05T04:37:31.373Z,11.67
2022-11-05T04:42:34.379Z,15.00
2022-11-05T04:47:37.488Z,11.40
2022-11-05T04:52:42.087Z,9.87
2022-11-05T04:57:45.196Z,11.77
2022-11-05T05:02:48.711Z,12.30
2022-11-05T05:07:53.054Z,10.60
2022-11-05T05:12:56.908Z,11.03
2022-11-05T05:18:00.694Z,11.00
2022-11-05T05:23:05.518Z,10.77
2022-11-05T05:28:08.555Z,12.33
2022-11-05T05:33:11.875Z,11.73
2022-11-05T05:38:16.516Z,9.93
2022-11-05T05:43:19.425Z,9.80
2022-11-05T05:48:22.428Z,10.27
2022-11-05T05:53:27.223Z,10.87
2022-11-05T05:58:33.741Z,10.03
2022-11-05T06:03:36.747Z,8.87
2022-11-05T06:08:41.415Z,8.00
2022-11-05T06:13:44.593Z,9.10
2022-11-05T06:18:47.959Z,8.87
2022-11-05T06:23:52.354Z,9.90
2022-11-05T06:28:57.264Z,14.50
2022-11-05T06:34:00.435Z,8.03
2022-11-05T06:39:05.028Z,8.40
2022-11-05T06:44:07.991Z,14.63
2022-11-05T06:49:11.252Z,9.17
2022-11-05T06:54:15.715Z,13.60
2022-11-05T06:59:18.804Z,10.13
2022-11-05T07:04:21.835Z,12.57
2022-11-05T07:09:26.407Z,11.93
2022-11-05T07:14:29.332Z,8.53
2022-11-05T07:19:32.355Z,11.70
2022-11-05T07:24:39.668Z,10.13
2022-11-05T07:29:45.503Z,9.60
2022-11-05T07:34:48.507Z,7.80
2022-11-05T07:39:52.832Z,10.77
2022-11-05T07:44:55.791Z,11.53
2022-11-05T07:49:58.753Z,16.53
2022-11-05T07:55:14.300Z,11.43
2022-11-05T08:00:24.847Z,10.77
2022-11-05T08:05:28.444Z,16.80
2022-11-05T08:10:34.115Z,12.33
2022-11-05T08:15:37.358Z,14.43
2022-11-05T08:20:41.355Z,11.23
2022-11-05T08:25:48.176Z,11.77
2022-11-05T08:30:55.131Z,10.53
2022-11-05T08:36:02.642Z,9.53
2022-11-05T08:41:07.556Z,10.67
2022-11-05T08:46:10.518Z,10.90
2022-11-05T08:51:13.566Z,11.10
2022-11-05T08:56:17.849Z,8.73
2022-11-05T09:01:20.944Z,9.63
2022-11-05T09:06:23.967Z,9.50
2022-11-05T09:11:49.655Z,9.13
2022-11-05T09:16:51.261Z,7.10
2022-11-05T09:21:54.223Z,10.35
2022-11-05T09:26:58.603Z,9.18
2022-11-05T09:32:01.704Z,8.60
2022-11-05T09:37:04.698Z,8.50
2022-11-05T09:42:12.258Z,10.23
2022-11-05T09:47:19.330Z,9.15
2022-11-05T09:52:25.818Z,11.63
2022-11-05T09:57:42.908Z,11.70
2022-11-05T10:02:50.690Z,8.13
2022-11-05T10:07:57.890Z,6.72
2022-11-05T10:13:07.687Z,10.20
2022-11-05T10:18:16.937Z,10.93
2022-11-05T10:23:22.443Z,7.50
2022-11-05T10:28:30.449Z,7.88
2022-11-05T10:33:40.414Z,6.93
2022-11-05T10:38:43.370Z,9.45
2022-11-05T10:43:50.828Z,9.00
2022-11-05T10:49:21.467Z,6.68
2022-11-05T10:54:27.990Z,9.60
2022-11-05T10:59:32.456Z,8.38
2022-11-05T11:04:38.142Z,5.43
2022-11-05T11:09:48.697Z,5.60
2022-11-05T11:15:03.107Z,6.10
2022-11-05T11:20:22.478Z,8.23
2022-11-05T11:25:27.494Z,5.97
2022-11-05T11:30:32.445Z,7.38
2022-11-05T11:35:39.364Z,8.85
2022-11-05T11:40:42.969Z,6.10
2022-11-05T11:45:50.854Z,6.32
2022-11-05T11:50:53.916Z,5.97
2022-11-05T11:56:05.799Z,5.95
2022-11-05T12:01:37.603Z,8.55
2022-11-05T12:06:48.651Z,5.55
2022-11-05T12:12:01.313Z,4.95
2022-11-05T12:17:26.492Z,6.30
2022-11-05T12:22:39.461Z,8.27
2022-11-05T12:27:58.624Z,5.15
2022-11-05T12:33:20.605Z,5.93
2022-11-05T12:38:33.942Z,5.25
2022-11-05T12:43:50.748Z,5.72
2022-11-05T12:49:22.469Z,5.32
2022-11-05T12:54:35.722Z,8.88
2022-11-05T12:59:42.849Z,7.10
2022-11-05T13:04:53.496Z,6.07
2022-11-05T13:10:01.538Z,5.28
2022-11-05T13:15:14.285Z,6.55
2022-11-05T13:20:23.048Z,7.53
2022-11-05T13:25:29.180Z,7.65
2022-11-05T13:30:37.691Z,7.22
2022-11-05T13:35:49.020Z,8.75
2022-11-05T13:41:07.739Z,3.97
2022-11-05T13:46:27.464Z,3.33
2022-11-05T13:51:48.210Z,4.57
2022-11-05T13:57:07.193Z,4.90
2022-11-05T14:02:16.215Z,6.00
2022-11-05T14:07:24.217Z,4.00
2022-11-05T14:12:30.103Z,4.20
2022-11-05T14:17:36.592Z,3.03
2022-11-05T14:22:42.745Z,3.17
2022-11-05T14:27:47.822Z,4.10
2022-11-05T14:32:53.181Z,3.30
2022-11-05T14:37:58.921Z,7.20
2022-11-05T14:43:05.678Z,4.03
2022-11-05T14:48:27.194Z,5.65
2022-11-05T14:53:35.947Z,7.25
2022-11-05T14:58:40.357Z,7.00
2022-11-05T15:04:03.444Z,4.23
2022-11-05T15:09:28.268Z,6.53
2022-11-05T15:14:35.764Z,6.40
2022-11-05T15:19:40.209Z,5.17
2022-11-05T15:24:44.944Z,6.13
2022-11-05T15:29:48.070Z,6.73
2022-11-05T15:34:55.598Z,6.37
2022-11-05T15:39:59.966Z,4.63
2022-11-05T15:45:02.863Z,8.20
2022-11-05T15:50:14.777Z,10.20
2022-11-05T15:55:24.843Z,9.30
2022-11-05T16:00:29.488Z,6.10
2022-11-05T16:05:36.331Z,5.37
2022-11-05T16:10:46.754Z,7.17
2022-11-05T16:15:55.514Z,7.67
2022-11-05T16:21:03.488Z,4.57
2022-11-05T16:27:00.775Z,5.63
2022-11-05T16:31:56.532Z,5.50
2022-11-05T16:37:00.852Z,10.60
2022-11-05T16:42:36.606Z,7.40
2022-11-05T16:47:39.591Z,10.27
2022-11-05T16:52:42.623Z,10.73
2022-11-05T16:57:50.551Z,11.60
2022-11-05T17:02:55.086Z,8.70
2022-11-05T17:08:00.624Z,9.83
2022-11-05T17:13:04.997Z,10.23
2022-11-05T17:18:08.214Z,9.57
2022-11-05T17:23:13.516Z,12.53
2022-11-05T17:28:19.615Z,11.10
2022-11-05T17:33:23.715Z,10.03
2022-11-05T17:38:28.025Z,12.57
2022-11-05T17:43:32.321Z,11.30
2022-11-05T17:48:35.587Z,11.57
2022-11-05T17:53:39.297Z,9.47
2022-11-05T17:58:44.231Z,11.10
2022-11-05T18:03:47.831Z,11.63
2022-11-05T18:08:50.812Z,12.90
2022-11-05T18:13:55.120Z,12.03
2022-11-05T18:18:58.227Z,14.50
2022-11-05T18:24:03.609Z,16.43
2022-11-05T18:29:07.910Z,17.07
2022-11-05T18:34:11.373Z,15.93
2022-11-05T18:39:14.528Z,15.23
2022-11-05T18:44:22.807Z,15.87
2022-11-05T18:49:26.350Z,16.80
2022-11-05T18:54:29.550Z,14.60
2022-11-05T18:59:39.140Z,22.83
2022-11-05T19:05:00.430Z,46.30
2022-11-05T19:10:07.945Z,40.43
2022-11-05T19:15:17.927Z,37.43
2022-11-05T19:20:22.789Z,34.30
2022-11-05T19:25:27.462Z,36.43
2022-11-05T19:30:38.091Z,25.80
2022-11-05T19:35:52.205Z,19.60
2022-11-05T19:41:16.295Z,16.17
2022-11-05T19:46:43.579Z,13.27
2022-11-05T19:51:55.524Z,14.27
2022-11-05T19:57:23.386Z,15.37
2022-11-05T20:02:34.667Z,12.33
2022-11-05T20:07:53.057Z,13.87
2022-11-05T20:13:00.313Z,22.23
2022-11-05T20:18:13.270Z,16.60
2022-11-05T20:23:33.968Z,14.60
2022-11-05T20:28:41.963Z,18.00
2022-11-05T20:33:49.559Z,15.93
2022-11-05T20:39:04.320Z,15.10
2022-11-05T20:44:17.909Z,15.17
2022-11-05T20:49:27.573Z,16.80
2022-11-05T20:54:39.445Z,15.83
2022-11-05T20:59:49.993Z,13.10
2022-11-05T21:05:03.545Z,15.50
2022-11-05T21:15:30.423Z,14.93
2022-11-05T21:20:46.646Z,15.37
2022-11-05T21:25:55.978Z,17.17
2022-11-05T21:31:05.347Z,16.20
2022-11-05T21:36:18.906Z,14.03
2022-11-05T21:41:24.613Z,13.03
2022-11-05T21:46:35.032Z,12.43
2022-11-05T21:51:57.948Z,11.80
2022-11-05T21:57:27.514Z,10.10
2022-11-05T22:02:35.165Z,12.47
2022-11-05T22:07:44.098Z,12.03
2022-11-05T22:12:49.937Z,10.40
2022-11-05T22:18:07.752Z,10.67
2022-11-05T22:23:36.421Z,13.10
2022-11-05T22:28:42.068Z,11.33
2022-11-05T22:33:57.862Z,13.20
2022-11-05T22:39:09.355Z,10.27
2022-11-05T22:44:18.502Z,10.00
2022-11-05T22:49:41.475Z,11.03
2022-11-05T22:55:07.467Z,8.67
2022-11-05T23:00:22.861Z,9.13
2022-11-05T23:05:31.698Z,11.90
2022-11-05T23:10:53.495Z,12.53
2022-11-05T23:16:15.157Z,8.50
2022-11-05T23:21:43.072Z,8.83
2022-11-05T23:27:04.274Z,13.03
2022-11-05T23:32:34.422Z,12.33
2022-11-05T23:38:00.497Z,9.10
2022-11-05T23:43:25.493Z,7.83
2022-11-05T23:48:40.757Z,9.10
2022-11-05T23:54:03.325Z,10.20
2022-11-05T23:59:16.568Z,10.57
